Crabtree Valley, North Carolina
Current Conditions -  °F | °C
As of 5:51 PM on Friday 19 Dec 2014 (Local Time) from KRDU Reporting Station
Broken Clouds Broken Clouds  
Wind Chill: 45°   Ceiling: 25000
Heat Index: 45°   Visibility: 10mi
Dew Point: 28°   Wind: 0mph
Humidity: 52%   Direction: NA
Pressure: 30.17"   Gusts: NA
Location:  35.8523°N, 78.6943°W
Report Text: KRDU 192251Z 00000KT 10SM BKN250 07/M02 A3017 RMK AO2 SLP218 T00721022
Loading
Personal Weather Stations






























Interactive Weather Map New forecast layout! Learn more

10-Day Weather Forecast

Advertisements
Track Severe Weather on mobile